sensor_id;sensor_type;location;lat;lon;timestamp;P1;durP1;ratioP1;P2;durP2;ratioP2
17917;SDS011;9084;50.956;3.106;2023-09-30T00:02:21;9.55;;;3.70;;
17917;SDS011;9084;50.956;3.106;2023-09-30T00:04:47;6.55;;;3.67;;
17917;SDS011;9084;50.956;3.106;2023-09-30T00:07:13;8.15;;;3.90;;
17917;SDS011;9084;50.956;3.106;2023-09-30T00:09:38;8.18;;;4.00;;
17917;SDS011;9084;50.956;3.106;2023-09-30T00:12:05;11.82;;;4.00;;
17917;SDS011;9084;50.956;3.106;2023-09-30T00:14:31;7.20;;;4.35;;
17917;SDS011;9084;50.956;3.106;2023-09-30T00:16:57;10.13;;;4.00;;
17917;SDS011;9084;50.956;3.106;2023-09-30T00:19:23;9.23;;;4.00;;
17917;SDS011;9084;50.956;3.106;2023-09-30T00:21:48;7.32;;;4.03;;
17917;SDS011;9084;50.956;3.106;2023-09-30T00:24:16;7.57;;;4.05;;
17917;SDS011;9084;50.956;3.106;2023-09-30T00:26:44;7.57;;;4.20;;
17917;SDS011;9084;50.956;3.106;2023-09-30T00:29:11;10.82;;;4.00;;
17917;SDS011;9084;50.956;3.106;2023-09-30T00:31:39;10.07;;;4.47;;
17917;SDS011;9084;50.956;3.106;2023-09-30T00:34:05;9.45;;;3.97;;
17917;SDS011;9084;50.956;3.106;2023-09-30T00:36:33;8.85;;;4.15;;
17917;SDS011;9084;50.956;3.106;2023-09-30T00:39:04;7.07;;;4.18;;
17917;SDS011;9084;50.956;3.106;2023-09-30T00:41:33;7.20;;;3.90;;
17917;SDS011;9084;50.956;3.106;2023-09-30T00:44:06;10.32;;;3.45;;
17917;SDS011;9084;50.956;3.106;2023-09-30T00:46:33;10.35;;;4.03;;
17917;SDS011;9084;50.956;3.106;2023-09-30T00:49:02;7.63;;;3.20;;
17917;SDS011;9084;50.956;3.106;2023-09-30T00:51:34;8.60;;;3.35;;
17917;SDS011;9084;50.956;3.106;2023-09-30T00:54:01;9.93;;;3.90;;
17917;SDS011;9084;50.956;3.106;2023-09-30T00:56:29;8.13;;;3.70;;
17917;SDS011;9084;50.956;3.106;2023-09-30T00:58:55;7.30;;;3.55;;
17917;SDS011;9084;50.956;3.106;2023-09-30T01:01:21;11.93;;;3.50;;
17917;SDS011;9084;50.956;3.106;2023-09-30T01:03:49;8.27;;;4.03;;
17917;SDS011;9084;50.956;3.106;2023-09-30T01:06:17;9.90;;;4.38;;
17917;SDS011;9084;50.956;3.106;2023-09-30T01:08:45;13.23;;;4.60;;
17917;SDS011;9084;50.956;3.106;2023-09-30T01:11:10;8.50;;;3.70;;
17917;SDS011;9084;50.956;3.106;2023-09-30T01:13:37;7.95;;;3.50;;
17917;SDS011;9084;50.956;3.106;2023-09-30T01:16:06;11.75;;;3.33;;
17917;SDS011;9084;50.956;3.106;2023-09-30T01:18:36;10.88;;;4.13;;
17917;SDS011;9084;50.956;3.106;2023-09-30T01:21:04;6.55;;;3.17;;
17917;SDS011;9084;50.956;3.106;2023-09-30T01:23:31;9.60;;;4.15;;
17917;SDS011;9084;50.956;3.106;2023-09-30T01:25:57;11.00;;;3.58;;
17917;SDS011;9084;50.956;3.106;2023-09-30T01:28:30;8.43;;;3.67;;
17917;SDS011;9084;50.956;3.106;2023-09-30T01:30:56;8.38;;;4.50;;
17917;SDS011;9084;50.956;3.106;2023-09-30T01:33:22;7.57;;;3.60;;
17917;SDS011;9084;50.956;3.106;2023-09-30T01:35:50;12.38;;;4.05;;
17917;SDS011;9084;50.956;3.106;2023-09-30T01:38:18;9.48;;;4.32;;
17917;SDS011;9084;50.956;3.106;2023-09-30T01:40:44;10.52;;;3.63;;
17917;SDS011;9084;50.956;3.106;2023-09-30T01:43:11;11.98;;;3.95;;
17917;SDS011;9084;50.956;3.106;2023-09-30T01:45:40;7.50;;;2.92;;
17917;SDS011;9084;50.956;3.106;2023-09-30T01:48:07;7.57;;;3.22;;
17917;SDS011;9084;50.956;3.106;2023-09-30T01:50:42;6.28;;;3.65;;
17917;SDS011;9084;50.956;3.106;2023-09-30T01:53:09;7.13;;;3.55;;
17917;SDS011;9084;50.956;3.106;2023-09-30T01:55:35;9.73;;;3.45;;
17917;SDS011;9084;50.956;3.106;2023-09-30T01:58:01;6.10;;;3.70;;
17917;SDS011;9084;50.956;3.106;2023-09-30T02:00:27;8.43;;;2.72;;
17917;SDS011;9084;50.956;3.106;2023-09-30T02:02:54;8.38;;;3.70;;
17917;SDS011;9084;50.956;3.106;2023-09-30T02:05:21;7.50;;;3.35;;
17917;SDS011;9084;50.956;3.106;2023-09-30T02:07:48;5.47;;;2.70;;
17917;SDS011;9084;50.956;3.106;2023-09-30T02:10:14;5.43;;;2.20;;
17917;SDS011;9084;50.956;3.106;2023-09-30T02:12:39;4.60;;;2.20;;
17917;SDS011;9084;50.956;3.106;2023-09-30T02:15:10;5.97;;;2.33;;
17917;SDS011;9084;50.956;3.106;2023-09-30T02:17:36;6.03;;;3.28;;
17917;SDS011;9084;50.956;3.106;2023-09-30T02:20:02;5.03;;;3.00;;
17917;SDS011;9084;50.956;3.106;2023-09-30T02:22:33;8.00;;;3.33;;
17917;SDS011;9084;50.956;3.106;2023-09-30T02:24:58;4.82;;;3.20;;
17917;SDS011;9084;50.956;3.106;2023-09-30T02:27:24;8.18;;;3.47;;
17917;SDS011;9084;50.956;3.106;2023-09-30T02:29:49;6.15;;;3.45;;
17917;SDS011;9084;50.956;3.106;2023-09-30T02:32:17;8.27;;;3.80;;
17917;SDS011;9084;50.956;3.106;2023-09-30T02:34:43;9.70;;;3.30;;
17917;SDS011;9084;50.956;3.106;2023-09-30T02:37:14;6.03;;;3.05;;
17917;SDS011;9084;50.956;3.106;2023-09-30T02:39:39;5.03;;;2.83;;
17917;SDS011;9084;50.956;3.106;2023-09-30T02:42:08;4.97;;;2.50;;
17917;SDS011;9084;50.956;3.106;2023-09-30T02:44:33;5.15;;;3.15;;
17917;SDS011;9084;50.956;3.106;2023-09-30T02:47:02;5.00;;;3.03;;
17917;SDS011;9084;50.956;3.106;2023-09-30T02:49:27;6.07;;;3.40;;
17917;SDS011;9084;50.956;3.106;2023-09-30T02:51:53;8.15;;;3.33;;
17917;SDS011;9084;50.956;3.106;2023-09-30T02:54:18;9.50;;;3.90;;
17917;SDS011;9084;50.956;3.106;2023-09-30T02:56:44;7.88;;;3.17;;
17917;SDS011;9084;50.956;3.106;2023-09-30T02:59:11;5.90;;;2.90;;
17917;SDS011;9084;50.956;3.106;2023-09-30T03:01:41;6.47;;;3.38;;
17917;SDS011;9084;50.956;3.106;2023-09-30T03:04:07;6.68;;;3.08;;
17917;SDS011;9084;50.956;3.106;2023-09-30T03:06:34;5.45;;;3.03;;
17917;SDS011;9084;50.956;3.106;2023-09-30T03:09:02;6.40;;;3.45;;
17917;SDS011;9084;50.956;3.106;2023-09-30T03:11:29;5.65;;;3.20;;
17917;SDS011;9084;50.956;3.106;2023-09-30T03:13:56;7.65;;;3.85;;
17917;SDS011;9084;50.956;3.106;2023-09-30T03:16:24;7.10;;;3.42;;
17917;SDS011;9084;50.956;3.106;2023-09-30T03:18:52;10.70;;;3.63;;
17917;SDS011;9084;50.956;3.106;2023-09-30T03:21:20;7.90;;;3.55;;
17917;SDS011;9084;50.956;3.106;2023-09-30T03:23:45;5.13;;;3.58;;
17917;SDS011;9084;50.956;3.106;2023-09-30T03:26:11;6.40;;;3.03;;
17917;SDS011;9084;50.956;3.106;2023-09-30T03:28:38;9.02;;;3.70;;
17917;SDS011;9084;50.956;3.106;2023-09-30T03:31:07;5.55;;;3.33;;
17917;SDS011;9084;50.956;3.106;2023-09-30T03:33:35;6.60;;;3.80;;
17917;SDS011;9084;50.956;3.106;2023-09-30T03:36:02;7.18;;;3.88;;
17917;SDS011;9084;50.956;3.106;2023-09-30T03:38:28;8.55;;;4.38;;
17917;SDS011;9084;50.956;3.106;2023-09-30T03:40:54;8.52;;;4.18;;
17917;SDS011;9084;50.956;3.106;2023-09-30T03:43:20;7.88;;;4.00;;
17917;SDS011;9084;50.956;3.106;2023-09-30T03:45:50;7.20;;;3.63;;
17917;SDS011;9084;50.956;3.106;2023-09-30T03:48:18;6.00;;;3.45;;
17917;SDS011;9084;50.956;3.106;2023-09-30T03:50:46;4.57;;;3.60;;
17917;SDS011;9084;50.956;3.106;2023-09-30T03:53:13;9.27;;;4.22;;
17917;SDS011;9084;50.956;3.106;2023-09-30T03:55:40;7.18;;;3.92;;
17917;SDS011;9084;50.956;3.106;2023-09-30T03:58:07;8.82;;;4.32;;
17917;SDS011;9084;50.956;3.106;2023-09-30T04:00:34;7.20;;;4.60;;
17917;SDS011;9084;50.956;3.106;2023-09-30T04:03:00;5.70;;;3.55;;
17917;SDS011;9084;50.956;3.106;2023-09-30T04:05:31;9.43;;;3.85;;
17917;SDS011;9084;50.956;3.106;2023-09-30T04:08:01;7.07;;;4.30;;
17917;SDS011;9084;50.956;3.106;2023-09-30T04:10:27;9.77;;;4.03;;
17917;SDS011;9084;50.956;3.106;2023-09-30T04:12:55;7.10;;;4.47;;
17917;SDS011;9084;50.956;3.106;2023-09-30T04:15:23;11.05;;;4.10;;
17917;SDS011;9084;50.956;3.106;2023-09-30T04:17:49;6.75;;;4.18;;
17917;SDS011;9084;50.956;3.106;2023-09-30T04:20:19;7.00;;;4.25;;
17917;SDS011;9084;50.956;3.106;2023-09-30T04:22:49;6.15;;;4.05;;
17917;SDS011;9084;50.956;3.106;2023-09-30T04:25:16;6.53;;;4.20;;
17917;SDS011;9084;50.956;3.106;2023-09-30T04:27:46;6.47;;;4.00;;
17917;SDS011;9084;50.956;3.106;2023-09-30T04:30:13;9.32;;;4.53;;
17917;SDS011;9084;50.956;3.106;2023-09-30T04:32:40;9.90;;;4.55;;
17917;SDS011;9084;50.956;3.106;2023-09-30T04:35:06;5.50;;;4.15;;
17917;SDS011;9084;50.956;3.106;2023-09-30T04:37:35;6.70;;;3.88;;
17917;SDS011;9084;50.956;3.106;2023-09-30T04:40:03;6.95;;;4.00;;
17917;SDS011;9084;50.956;3.106;2023-09-30T04:42:34;6.88;;;4.18;;
17917;SDS011;9084;50.956;3.106;2023-09-30T04:45:03;7.70;;;4.30;;
17917;SDS011;9084;50.956;3.106;2023-09-30T04:47:33;8.25;;;4.93;;
17917;SDS011;9084;50.956;3.106;2023-09-30T04:50:02;9.18;;;4.97;;
17917;SDS011;9084;50.956;3.106;2023-09-30T04:52:32;7.75;;;4.45;;
17917;SDS011;9084;50.956;3.106;2023-09-30T04:54:58;9.43;;;4.20;;
17917;SDS011;9084;50.956;3.106;2023-09-30T04:57:25;12.45;;;4.95;;
17917;SDS011;9084;50.956;3.106;2023-09-30T04:59:53;6.43;;;4.05;;
17917;SDS011;9084;50.956;3.106;2023-09-30T05:02:22;7.10;;;3.45;;
17917;SDS011;9084;50.956;3.106;2023-09-30T05:04:49;4.80;;;3.85;;
17917;SDS011;9084;50.956;3.106;2023-09-30T05:07:15;7.00;;;3.85;;
17917;SDS011;9084;50.956;3.106;2023-09-30T05:09:44;7.63;;;4.25;;
17917;SDS011;9084;50.956;3.106;2023-09-30T05:12:12;10.13;;;4.32;;
17917;SDS011;9084;50.956;3.106;2023-09-30T05:14:38;9.57;;;4.75;;
17917;SDS011;9084;50.956;3.106;2023-09-30T05:17:04;8.30;;;4.22;;
17917;SDS011;9084;50.956;3.106;2023-09-30T05:19:33;7.78;;;4.53;;
17917;SDS011;9084;50.956;3.106;2023-09-30T05:21:58;8.43;;;4.90;;
17917;SDS011;9084;50.956;3.106;2023-09-30T05:24:26;8.65;;;4.63;;
17917;SDS011;9084;50.956;3.106;2023-09-30T05:26:57;9.80;;;4.57;;
17917;SDS011;9084;50.956;3.106;2023-09-30T05:29:25;8.52;;;4.70;;
17917;SDS011;9084;50.956;3.106;2023-09-30T05:31:51;8.95;;;3.67;;
17917;SDS011;9084;50.956;3.106;2023-09-30T05:34:16;7.72;;;4.70;;
17917;SDS011;9084;50.956;3.106;2023-09-30T05:36:44;8.20;;;4.20;;
17917;SDS011;9084;50.956;3.106;2023-09-30T05:39:12;8.95;;;4.38;;
17917;SDS011;9084;50.956;3.106;2023-09-30T05:41:38;8.25;;;4.13;;
17917;SDS011;9084;50.956;3.106;2023-09-30T05:44:06;8.55;;;4.32;;
17917;SDS011;9084;50.956;3.106;2023-09-30T05:46:32;7.63;;;4.18;;
17917;SDS011;9084;50.956;3.106;2023-09-30T05:48:58;11.50;;;4.28;;
17917;SDS011;9084;50.956;3.106;2023-09-30T05:51:23;6.78;;;4.47;;
17917;SDS011;9084;50.956;3.106;2023-09-30T05:53:52;8.88;;;4.03;;
17917;SDS011;9084;50.956;3.106;2023-09-30T05:56:19;10.18;;;5.90;;
17917;SDS011;9084;50.956;3.106;2023-09-30T05:58:45;9.80;;;5.32;;
17917;SDS011;9084;50.956;3.106;2023-09-30T06:01:15;11.95;;;5.75;;
17917;SDS011;9084;50.956;3.106;2023-09-30T06:03:44;13.90;;;5.63;;
17917;SDS011;9084;50.956;3.106;2023-09-30T06:06:13;11.90;;;6.50;;
17917;SDS011;9084;50.956;3.106;2023-09-30T06:08:44;11.27;;;6.35;;
17917;SDS011;9084;50.956;3.106;2023-09-30T06:11:16;9.20;;;5.60;;
17917;SDS011;9084;50.956;3.106;2023-09-30T06:13:49;9.15;;;5.85;;
17917;SDS011;9084;50.956;3.106;2023-09-30T06:16:19;13.18;;;5.65;;
17917;SDS011;9084;50.956;3.106;2023-09-30T06:18:48;10.05;;;5.35;;
17917;SDS011;9084;50.956;3.106;2023-09-30T06:21:16;5.43;;;4.43;;
17917;SDS011;9084;50.956;3.106;2023-09-30T06:23:45;7.28;;;5.03;;
17917;SDS011;9084;50.956;3.106;2023-09-30T06:26:16;6.28;;;4.22;;
17917;SDS011;9084;50.956;3.106;2023-09-30T06:28:42;5.22;;;4.60;;
17917;SDS011;9084;50.956;3.106;2023-09-30T06:31:08;6.53;;;4.90;;
17917;SDS011;9084;50.956;3.106;2023-09-30T06:33:35;5.00;;;4.50;;
17917;SDS011;9084;50.956;3.106;2023-09-30T06:36:11;4.72;;;4.28;;
17917;SDS011;9084;50.956;3.106;2023-09-30T06:38:41;4.43;;;3.70;;
17917;SDS011;9084;50.956;3.106;2023-09-30T06:41:16;4.60;;;4.00;;
17917;SDS011;9084;50.956;3.106;2023-09-30T06:43:43;4.45;;;3.78;;
17917;SDS011;9084;50.956;3.106;2023-09-30T06:46:09;4.47;;;3.42;;
17917;SDS011;9084;50.956;3.106;2023-09-30T06:48:38;4.20;;;3.60;;
17917;SDS011;9084;50.956;3.106;2023-09-30T06:51:07;4.32;;;3.45;;
17917;SDS011;9084;50.956;3.106;2023-09-30T06:53:39;4.18;;;3.78;;
17917;SDS011;9084;50.956;3.106;2023-09-30T06:56:07;4.65;;;4.10;;
17917;SDS011;9084;50.956;3.106;2023-09-30T06:58:33;5.68;;;4.03;;
17917;SDS011;9084;50.956;3.106;2023-09-30T07:00:59;6.45;;;3.90;;
17917;SDS011;9084;50.956;3.106;2023-09-30T07:03:27;5.80;;;4.30;;
17917;SDS011;9084;50.956;3.106;2023-09-30T07:05:53;6.38;;;3.78;;
17917;SDS011;9084;50.956;3.106;2023-09-30T07:08:19;4.88;;;4.00;;
17917;SDS011;9084;50.956;3.106;2023-09-30T07:10:48;4.97;;;3.92;;
17917;SDS011;9084;50.956;3.106;2023-09-30T07:13:20;5.85;;;4.03;;
17917;SDS011;9084;50.956;3.106;2023-09-30T07:15:45;4.25;;;3.63;;
17917;SDS011;9084;50.956;3.106;2023-09-30T07:18:11;6.28;;;3.85;;
17917;SDS011;9084;50.956;3.106;2023-09-30T07:20:42;4.68;;;4.07;;
17917;SDS011;9084;50.956;3.106;2023-09-30T07:23:10;6.50;;;4.13;;
17917;SDS011;9084;50.956;3.106;2023-09-30T07:25:35;5.53;;;4.28;;
17917;SDS011;9084;50.956;3.106;2023-09-30T07:28:01;5.57;;;4.30;;
17917;SDS011;9084;50.956;3.106;2023-09-30T07:30:29;5.15;;;4.10;;
17917;SDS011;9084;50.956;3.106;2023-09-30T07:32:55;5.50;;;4.40;;
17917;SDS011;9084;50.956;3.106;2023-09-30T07:35:20;6.18;;;4.65;;
17917;SDS011;9084;50.956;3.106;2023-09-30T07:37:46;5.30;;;4.13;;
17917;SDS011;9084;50.956;3.106;2023-09-30T07:40:16;4.47;;;4.07;;
17917;SDS011;9084;50.956;3.106;2023-09-30T07:42:46;4.68;;;4.15;;
17917;SDS011;9084;50.956;3.106;2023-09-30T07:45:15;6.57;;;5.40;;
17917;SDS011;9084;50.956;3.106;2023-09-30T07:47:42;6.38;;;5.10;;
17917;SDS011;9084;50.956;3.106;2023-09-30T07:50:14;5.80;;;4.95;;
17917;SDS011;9084;50.956;3.106;2023-09-30T07:52:42;6.63;;;5.75;;
17917;SDS011;9084;50.956;3.106;2023-09-30T07:55:08;7.72;;;6.55;;
17917;SDS011;9084;50.956;3.106;2023-09-30T07:57:34;10.50;;;7.20;;
17917;SDS011;9084;50.956;3.106;2023-09-30T08:00:00;9.32;;;7.50;;
17917;SDS011;9084;50.956;3.106;2023-09-30T08:02:30;8.93;;;7.78;;
17917;SDS011;9084;50.956;3.106;2023-09-30T08:04:58;7.90;;;7.20;;
17917;SDS011;9084;50.956;3.106;2023-09-30T08:07:25;12.65;;;8.00;;
17917;SDS011;9084;50.956;3.106;2023-09-30T08:09:51;16.17;;;8.82;;
17917;SDS011;9084;50.956;3.106;2023-09-30T08:12:18;10.32;;;8.00;;
17917;SDS011;9084;50.956;3.106;2023-09-30T08:14:44;9.32;;;8.00;;
17917;SDS011;9084;50.956;3.106;2023-09-30T08:17:12;12.85;;;8.80;;
17917;SDS011;9084;50.956;3.106;2023-09-30T08:19:38;11.40;;;8.82;;
17917;SDS011;9084;50.956;3.106;2023-09-30T08:22:04;11.88;;;8.43;;
17917;SDS011;9084;50.956;3.106;2023-09-30T08:24:31;13.18;;;8.95;;
17917;SDS011;9084;50.956;3.106;2023-09-30T08:26:59;11.77;;;8.57;;
17917;SDS011;9084;50.956;3.106;2023-09-30T08:29:25;11.98;;;8.50;;
17917;SDS011;9084;50.956;3.106;2023-09-30T08:31:51;16.35;;;8.90;;
17917;SDS011;9084;50.956;3.106;2023-09-30T08:34:19;14.57;;;8.98;;
17917;SDS011;9084;50.956;3.106;2023-09-30T08:36:49;15.70;;;9.50;;
17917;SDS011;9084;50.956;3.106;2023-09-30T08:39:16;12.60;;;8.30;;
17917;SDS011;9084;50.956;3.106;2023-09-30T08:41:42;11.55;;;8.60;;
17917;SDS011;9084;50.956;3.106;2023-09-30T08:44:10;10.38;;;7.85;;
17917;SDS011;9084;50.956;3.106;2023-09-30T08:46:36;10.45;;;8.07;;
17917;SDS011;9084;50.956;3.106;2023-09-30T08:49:05;11.00;;;8.27;;
17917;SDS011;9084;50.956;3.106;2023-09-30T08:51:34;10.57;;;7.68;;
17917;SDS011;9084;50.956;3.106;2023-09-30T08:54:08;10.65;;;6.80;;
17917;SDS011;9084;50.956;3.106;2023-09-30T08:56:33;12.00;;;7.47;;
17917;SDS011;9084;50.956;3.106;2023-09-30T08:59:00;11.05;;;6.90;;
17917;SDS011;9084;50.956;3.106;2023-09-30T09:01:27;11.35;;;6.60;;
17917;SDS011;9084;50.956;3.106;2023-09-30T09:03:54;10.73;;;6.50;;
17917;SDS011;9084;50.956;3.106;2023-09-30T09:06:24;10.05;;;6.22;;
17917;SDS011;9084;50.956;3.106;2023-09-30T09:08:55;9.98;;;6.03;;
17917;SDS011;9084;50.956;3.106;2023-09-30T09:11:42;10.07;;;6.22;;
17917;SDS011;9084;50.956;3.106;2023-09-30T09:14:09;9.30;;;5.80;;
17917;SDS011;9084;50.956;3.106;2023-09-30T09:16:34;9.20;;;5.13;;
17917;SDS011;9084;50.956;3.106;2023-09-30T09:19:12;8.05;;;5.50;;
17917;SDS011;9084;50.956;3.106;2023-09-30T09:21:39;11.00;;;6.15;;
17917;SDS011;9084;50.956;3.106;2023-09-30T09:24:30;6.47;;;5.10;;
17917;SDS011;9084;50.956;3.106;2023-09-30T09:27:04;12.60;;;5.82;;
17917;SDS011;9084;50.956;3.106;2023-09-30T09:29:30;9.40;;;5.28;;
17917;SDS011;9084;50.956;3.106;2023-09-30T09:32:06;9.15;;;5.35;;
17917;SDS011;9084;50.956;3.106;2023-09-30T09:34:42;7.15;;;4.78;;
17917;SDS011;9084;50.956;3.106;2023-09-30T09:37:16;6.75;;;4.78;;
17917;SDS011;9084;50.956;3.106;2023-09-30T09:39:52;9.93;;;5.50;;
17917;SDS011;9084;50.956;3.106;2023-09-30T09:42:28;9.43;;;4.82;;
17917;SDS011;9084;50.956;3.106;2023-09-30T09:44:59;4.95;;;4.45;;
17917;SDS011;9084;50.956;3.106;2023-09-30T09:47:27;7.28;;;4.13;;
17917;SDS011;9084;50.956;3.106;2023-09-30T09:49:57;9.13;;;4.60;;
17917;SDS011;9084;50.956;3.106;2023-09-30T09:52:24;9.15;;;4.82;;
17917;SDS011;9084;50.956;3.106;2023-09-30T09:54:50;11.32;;;5.07;;
17917;SDS011;9084;50.956;3.106;2023-09-30T09:57:16;5.53;;;3.72;;
17917;SDS011;9084;50.956;3.106;2023-09-30T09:59:46;10.05;;;4.65;;
17917;SDS011;9084;50.956;3.106;2023-09-30T10:02:15;8.15;;;4.18;;
17917;SDS011;9084;50.956;3.106;2023-09-30T10:04:44;10.60;;;4.90;;
17917;SDS011;9084;50.956;3.106;2023-09-30T10:07:12;9.75;;;5.30;;
17917;SDS011;9084;50.956;3.106;2023-09-30T10:09:47;8.90;;;5.13;;
17917;SDS011;9084;50.956;3.106;2023-09-30T10:12:15;8.25;;;4.70;;
17917;SDS011;9084;50.956;3.106;2023-09-30T10:14:42;6.93;;;4.47;;
17917;SDS011;9084;50.956;3.106;2023-09-30T10:17:09;9.55;;;4.90;;
17917;SDS011;9084;50.956;3.106;2023-09-30T10:19:35;9.32;;;5.15;;
17917;SDS011;9084;50.956;3.106;2023-09-30T10:24:42;11.32;;;5.18;;
17917;SDS011;9084;50.956;3.106;2023-09-30T10:29:56;10.55;;;4.38;;
17917;SDS011;9084;50.956;3.106;2023-09-30T10:35:41;9.70;;;4.53;;
17917;SDS011;9084;50.956;3.106;2023-09-30T10:40:49;7.75;;;3.83;;
17917;SDS011;9084;50.956;3.106;2023-09-30T10:43:35;8.20;;;3.40;;
17917;SDS011;9084;50.956;3.106;2023-09-30T10:46:02;6.75;;;3.15;;
17917;SDS011;9084;50.956;3.106;2023-09-30T10:51:11;5.93;;;2.97;;
17917;SDS011;9084;50.956;3.106;2023-09-30T10:53:43;8.77;;;2.70;;
17917;SDS011;9084;50.956;3.106;2023-09-30T10:56:12;8.90;;;3.60;;
17917;SDS011;9084;50.956;3.106;2023-09-30T10:58:39;5.47;;;2.65;;
17917;SDS011;9084;50.956;3.106;2023-09-30T11:01:05;5.97;;;3.08;;
17917;SDS011;9084;50.956;3.106;2023-09-30T11:03:30;8.65;;;3.00;;
17917;SDS011;9084;50.956;3.106;2023-09-30T11:05:56;6.57;;;2.50;;
17917;SDS011;9084;50.956;3.106;2023-09-30T11:08:22;6.80;;;2.42;;
17917;SDS011;9084;50.956;3.106;2023-09-30T11:10:51;8.25;;;2.65;;
17917;SDS011;9084;50.956;3.106;2023-09-30T11:13:20;6.15;;;2.45;;
17917;SDS011;9084;50.956;3.106;2023-09-30T11:15:59;4.47;;;2.20;;
17917;SDS011;9084;50.956;3.106;2023-09-30T11:18:30;5.60;;;2.13;;
17917;SDS011;9084;50.956;3.106;2023-09-30T11:21:09;6.25;;;2.75;;
17917;SDS011;9084;50.956;3.106;2023-09-30T11:23:40;6.75;;;2.65;;
17917;SDS011;9084;50.956;3.106;2023-09-30T11:26:06;3.20;;;1.77;;
17917;SDS011;9084;50.956;3.106;2023-09-30T11:28:38;4.20;;;1.90;;
17917;SDS011;9084;50.956;3.106;2023-09-30T11:31:08;5.30;;;1.83;;
17917;SDS011;9084;50.956;3.106;2023-09-30T11:33:54;5.22;;;1.73;;
17917;SDS011;9084;50.956;3.106;2023-09-30T11:36:26;4.75;;;1.60;;
17917;SDS011;9084;50.956;3.106;2023-09-30T11:38:53;6.22;;;2.20;;
17917;SDS011;9084;50.956;3.106;2023-09-30T11:41:19;7.50;;;2.22;;
17917;SDS011;9084;50.956;3.106;2023-09-30T11:43:59;7.60;;;1.88;;
17917;SDS011;9084;50.956;3.106;2023-09-30T11:46:55;6.88;;;2.13;;
17917;SDS011;9084;50.956;3.106;2023-09-30T11:52:08;4.93;;;1.60;;
17917;SDS011;9084;50.956;3.106;2023-09-30T11:54:42;4.32;;;1.90;;
17917;SDS011;9084;50.956;3.106;2023-09-30T11:57:12;6.30;;;1.95;;
17917;SDS011;9084;50.956;3.106;2023-09-30T11:59:40;5.82;;;1.85;;
17917;SDS011;9084;50.956;3.106;2023-09-30T12:02:09;5.32;;;2.20;;
17917;SDS011;9084;50.956;3.106;2023-09-30T12:04:36;4.38;;;2.20;;
17917;SDS011;9084;50.956;3.106;2023-09-30T12:07:05;4.70;;;2.28;;
17917;SDS011;9084;50.956;3.106;2023-09-30T12:09:34;5.53;;;2.00;;
17917;SDS011;9084;50.956;3.106;2023-09-30T12:12:04;6.90;;;1.90;;
17917;SDS011;9084;50.956;3.106;2023-09-30T12:14:34;9.05;;;2.13;;
17917;SDS011;9084;50.956;3.106;2023-09-30T12:16:59;9.73;;;2.28;;
17917;SDS011;9084;50.956;3.106;2023-09-30T12:19:25;7.05;;;2.30;;
17917;SDS011;9084;50.956;3.106;2023-09-30T12:21:51;4.88;;;1.73;;
17917;SDS011;9084;50.956;3.106;2023-09-30T12:24:17;5.70;;;1.98;;
17917;SDS011;9084;50.956;3.106;2023-09-30T12:26:50;3.67;;;1.70;;
17917;SDS011;9084;50.956;3.106;2023-09-30T12:29:17;5.18;;;1.98;;
17917;SDS011;9084;50.956;3.106;2023-09-30T12:31:47;5.72;;;1.77;;
17917;SDS011;9084;50.956;3.106;2023-09-30T12:34:16;6.38;;;2.03;;
17917;SDS011;9084;50.956;3.106;2023-09-30T12:36:42;4.00;;;2.03;;
17917;SDS011;9084;50.956;3.106;2023-09-30T12:39:08;5.93;;;2.05;;
17917;SDS011;9084;50.956;3.106;2023-09-30T12:41:38;7.68;;;2.50;;
17917;SDS011;9084;50.956;3.106;2023-09-30T12:44:07;5.80;;;2.00;;
17917;SDS011;9084;50.956;3.106;2023-09-30T12:46:38;5.53;;;2.13;;
17917;SDS011;9084;50.956;3.106;2023-09-30T12:49:06;5.30;;;2.20;;
17917;SDS011;9084;50.956;3.106;2023-09-30T12:51:32;4.20;;;1.70;;
17917;SDS011;9084;50.956;3.106;2023-09-30T12:53:59;4.78;;;1.80;;
17917;SDS011;9084;50.956;3.106;2023-09-30T12:56:27;7.32;;;2.28;;
17917;SDS011;9084;50.956;3.106;2023-09-30T12:58:57;6.30;;;2.08;;
17917;SDS011;9084;50.956;3.106;2023-09-30T13:01:23;3.75;;;1.70;;
17917;SDS011;9084;50.956;3.106;2023-09-30T13:03:51;4.03;;;2.05;;
17917;SDS011;9084;50.956;3.106;2023-09-30T13:06:16;4.53;;;1.83;;
17917;SDS011;9084;50.956;3.106;2023-09-30T13:08:44;3.70;;;1.80;;
17917;SDS011;9084;50.956;3.106;2023-09-30T13:11:10;5.43;;;2.22;;
17917;SDS011;9084;50.956;3.106;2023-09-30T13:13:41;6.13;;;2.00;;
17917;SDS011;9084;50.956;3.106;2023-09-30T13:16:10;5.22;;;1.75;;
17917;SDS011;9084;50.956;3.106;2023-09-30T13:18:36;6.00;;;2.05;;
17917;SDS011;9084;50.956;3.106;2023-09-30T13:21:02;4.32;;;1.65;;
17917;SDS011;9084;50.956;3.106;2023-09-30T13:23:30;5.25;;;2.20;;
17917;SDS011;9084;50.956;3.106;2023-09-30T13:25:59;3.60;;;1.60;;
17917;SDS011;9084;50.956;3.106;2023-09-30T13:28:27;4.75;;;1.65;;
17917;SDS011;9084;50.956;3.106;2023-09-30T13:30:55;6.95;;;2.03;;
17917;SDS011;9084;50.956;3.106;2023-09-30T13:33:21;4.75;;;1.85;;
17917;SDS011;9084;50.956;3.106;2023-09-30T13:35:47;6.07;;;2.53;;
17917;SDS011;9084;50.956;3.106;2023-09-30T13:38:15;6.88;;;2.10;;
17917;SDS011;9084;50.956;3.106;2023-09-30T13:40:46;6.45;;;1.67;;
17917;SDS011;9084;50.956;3.106;2023-09-30T13:43:14;5.40;;;2.22;;
17917;SDS011;9084;50.956;3.106;2023-09-30T13:45:39;5.38;;;1.80;;
17917;SDS011;9084;50.956;3.106;2023-09-30T13:48:05;3.65;;;1.88;;
17917;SDS011;9084;50.956;3.106;2023-09-30T13:50:36;7.10;;;1.73;;
17917;SDS011;9084;50.956;3.106;2023-09-30T13:53:02;6.32;;;2.13;;
17917;SDS011;9084;50.956;3.106;2023-09-30T13:55:32;6.00;;;2.20;;
17917;SDS011;9084;50.956;3.106;2023-09-30T13:58:07;6.10;;;1.88;;
17917;SDS011;9084;50.956;3.106;2023-09-30T14:00:34;5.20;;;1.70;;
17917;SDS011;9084;50.956;3.106;2023-09-30T14:03:00;4.68;;;1.90;;
17917;SDS011;9084;50.956;3.106;2023-09-30T14:05:25;4.97;;;1.70;;
17917;SDS011;9084;50.956;3.106;2023-09-30T14:07:53;4.57;;;1.60;;
17917;SDS011;9084;50.956;3.106;2023-09-30T14:10:21;4.65;;;1.77;;
17917;SDS011;9084;50.956;3.106;2023-09-30T14:12:48;4.15;;;1.80;;
17917;SDS011;9084;50.956;3.106;2023-09-30T14:15:16;4.35;;;1.58;;
17917;SDS011;9084;50.956;3.106;2023-09-30T14:17:41;6.20;;;2.20;;
17917;SDS011;9084;50.956;3.106;2023-09-30T14:20:10;6.57;;;2.50;;
17917;SDS011;9084;50.956;3.106;2023-09-30T14:22:40;4.68;;;1.83;;
17917;SDS011;9084;50.956;3.106;2023-09-30T14:25:06;6.47;;;1.95;;
17917;SDS011;9084;50.956;3.106;2023-09-30T14:27:34;7.32;;;2.25;;
17917;SDS011;9084;50.956;3.106;2023-09-30T14:30:00;4.22;;;1.85;;
17917;SDS011;9084;50.956;3.106;2023-09-30T14:32:30;6.25;;;2.25;;
17917;SDS011;9084;50.956;3.106;2023-09-30T14:34:56;6.75;;;2.50;;
17917;SDS011;9084;50.956;3.106;2023-09-30T14:37:25;8.70;;;2.28;;
17917;SDS011;9084;50.956;3.106;2023-09-30T14:39:54;5.30;;;2.42;;
17917;SDS011;9084;50.956;3.106;2023-09-30T14:42:20;6.57;;;2.28;;
17917;SDS011;9084;50.956;3.106;2023-09-30T14:44:46;6.13;;;2.22;;
17917;SDS011;9084;50.956;3.106;2023-09-30T14:47:12;6.45;;;2.60;;
17917;SDS011;9084;50.956;3.106;2023-09-30T14:49:40;4.82;;;1.95;;
17917;SDS011;9084;50.956;3.106;2023-09-30T14:52:06;6.85;;;1.98;;
17917;SDS011;9084;50.956;3.106;2023-09-30T14:54:32;8.60;;;2.50;;
17917;SDS011;9084;50.956;3.106;2023-09-30T14:57:00;8.27;;;2.20;;
17917;SDS011;9084;50.956;3.106;2023-09-30T14:59:26;4.68;;;2.20;;
17917;SDS011;9084;50.956;3.106;2023-09-30T15:01:54;5.88;;;2.70;;
17917;SDS011;9084;50.956;3.106;2023-09-30T15:04:22;6.22;;;2.65;;
17917;SDS011;9084;50.956;3.106;2023-09-30T15:06:49;5.85;;;2.22;;
17917;SDS011;9084;50.956;3.106;2023-09-30T15:09:17;6.43;;;2.45;;
17917;SDS011;9084;50.956;3.106;2023-09-30T15:11:45;5.85;;;2.22;;
17917;SDS011;9084;50.956;3.106;2023-09-30T15:14:10;5.85;;;2.05;;
17917;SDS011;9084;50.956;3.106;2023-09-30T15:16:36;4.65;;;2.00;;
17917;SDS011;9084;50.956;3.106;2023-09-30T15:19:02;4.47;;;1.98;;
17917;SDS011;9084;50.956;3.106;2023-09-30T15:21:27;6.38;;;2.22;;
17917;SDS011;9084;50.956;3.106;2023-09-30T15:23:56;5.25;;;2.45;;